Time;durP1;ratioP1;P1;durP2;ratioP2;P2;SDS_P1;SDS_P2;PMS_P1;PMS_P2;Temp;Humidity;BMP_temperature;BMP_pressure;BME280_temperature;BME280_humidity;BME280_pressure;Samples;Min_cycle;Max_cycle;Signal;HPM_P1;HPM_P2
2022/09/01 00:02:14;;;;;;;23.17;18.37;;;17.70;99.90;;;;;;5073190;28;21044;-65
2022/09/01 00:04:43;;;;;;;19.73;17.77;;;17.60;99.90;;;;;;5073398;28;20452;-64
2022/09/01 00:07:12;;;;;;;19.47;17.47;;;17.50;99.90;;;;;;5072955;28;20982;-64
2022/09/01 00:09:41;;;;;;;21.60;17.03;;;17.50;99.90;;;;;;5073471;28;20441;-64
2022/09/01 00:12:09;;;;;;;19.77;16.80;;;17.40;99.90;;;;;;5073295;28;20478;-65
2022/09/01 00:14:40;;;;;;;17.37;15.67;;;17.50;99.90;;;;;;5073004;28;20456;-64
2022/09/01 00:17:10;;;;;;;19.00;17.10;;;17.70;99.90;;;;;;5073044;28;20441;-64
2022/09/01 00:19:38;;;;;;;21.03;17.67;;;17.80;99.90;;;;;;5073222;28;20439;-65
2022/09/01 00:22:06;;;;;;;18.10;16.40;;;17.70;99.90;;;;;;5072889;28;20842;-65
2022/09/01 00:24:33;;;;;;;19.50;17.40;;;17.60;99.90;;;;;;5072888;28;20489;-65
2022/09/01 00:27:03;;;;;;;17.67;15.93;;;17.50;99.90;;;;;;5072999;28;20867;-64
2022/09/01 00:29:30;;;;;;;19.10;17.20;;;17.60;99.90;;;;;;5072918;28;20442;-64
2022/09/01 00:31:58;;;;;;;18.17;16.37;;;17.40;99.90;;;;;;5072808;28;20445;-65
2022/09/01 00:34:25;;;;;;;17.87;15.97;;;17.40;99.90;;;;;;5072934;28;20935;-64
2022/09/01 00:36:52;;;;;;;17.20;15.13;;;17.50;99.90;;;;;;5072832;28;20436;-64
2022/09/01 00:39:19;;;;;;;16.97;15.27;;;17.50;99.90;;;;;;5073074;28;20556;-64
2022/09/01 00:41:49;;;;;;;18.90;17.10;;;17.40;99.90;;;;;;5073149;28;20897;-64
2022/09/01 00:44:22;;;;;;;17.40;14.97;;;17.30;99.90;;;;;;5072806;28;20494;-65
2022/09/01 00:46:52;;;;;;;17.70;16.13;;;17.50;99.90;;;;;;5072569;28;20494;-65
2022/09/01 00:49:23;;;;;;;18.63;16.60;;;17.60;99.90;;;;;;5072934;28;20538;-65
2022/09/01 00:51:54;;;;;;;17.03;15.43;;;17.40;99.90;;;;;;5072712;28;20460;-65
2022/09/01 00:54:24;;;;;;;22.13;17.47;;;17.40;99.90;;;;;;5073295;28;20433;-64
2022/09/01 00:56:53;;;;;;;19.10;16.37;;;17.40;99.90;;;;;;5073561;28;20423;-65
2022/09/01 00:59:23;;;;;;;18.33;16.47;;;17.50;99.90;;;;;;5076327;28;20535;-64
2022/09/01 01:01:50;;;;;;;21.03;18.83;;;17.70;99.90;;;;;;5076339;28;20463;-64
2022/09/01 01:04:17;;;;;;;18.23;16.63;;;17.70;99.90;;;;;;5076436;28;20448;-65
2022/09/01 01:06:48;;;;;;;19.87;17.40;;;17.80;99.90;;;;;;5076075;28;21047;-64
2022/09/01 01:09:17;;;;;;;22.40;19.57;;;17.80;99.90;;;;;;5076653;28;20429;-64
2022/09/01 01:11:45;;;;;;;19.40;16.30;;;17.60;99.90;;;;;;5076468;28;20472;-64
2022/09/01 01:14:14;;;;;;;19.57;17.57;;;17.50;99.90;;;;;;5076340;28;20455;-64
2022/09/01 01:16:45;;;;;;;19.43;17.43;;;17.50;99.90;;;;;;5076250;28;20955;-64
2022/09/01 01:24:51;;;;;;;19.70;17.47;;;17.50;99.90;;;;;;5076203;28;20771;-66
2022/09/01 01:27:20;;;;;;;18.57;16.57;;;17.60;99.90;;;;;;5076067;28;20506;-65
2022/09/01 01:29:49;;;;;;;19.00;17.10;;;17.60;99.90;;;;;;5076065;28;20491;-65
2022/09/01 01:32:16;;;;;;;18.47;16.50;;;17.40;99.90;;;;;;5075950;28;20474;-64
2022/09/01 01:34:45;;;;;;;18.40;16.70;;;17.40;99.90;;;;;;5076113;28;20845;-64
2022/09/01 01:37:14;;;;;;;17.37;15.47;;;17.40;99.90;;;;;;5075982;28;20466;-64
2022/09/01 01:39:43;;;;;;;17.10;15.30;;;17.40;99.90;;;;;;5075928;28;20440;-65
2022/09/01 01:42:11;;;;;;;20.47;18.27;;;17.30;99.90;;;;;;5075610;28;20476;-64
2022/09/01 01:44:41;;;;;;;23.10;17.37;;;17.30;99.90;;;;;;5075587;28;20433;-64
2022/09/01 01:47:12;;;;;;;21.00;16.60;;;17.10;99.90;;;;;;5075017;28;20488;-64
2022/09/01 01:49:42;;;;;;;17.97;16.23;;;17.10;99.90;;;;;;5075843;28;20436;-66
2022/09/01 01:52:13;;;;;;;18.90;17.10;;;17.00;99.90;;;;;;5075739;28;20808;-65
2022/09/01 01:54:41;;;;;;;18.37;16.17;;;17.10;99.90;;;;;;5075408;28;20429;-64
2022/09/01 01:57:08;;;;;;;18.57;16.73;;;17.00;99.90;;;;;;5075296;28;20946;-64
2022/09/01 01:59:38;;;;;;;18.13;16.20;;;16.90;99.90;;;;;;5075551;28;20429;-64
2022/09/01 02:02:08;;;;;;;17.70;15.87;;;16.90;99.90;;;;;;5075283;28;20500;-66
2022/09/01 02:04:35;;;;;;;17.13;15.30;;;16.90;99.90;;;;;;5075466;28;20444;-65
2022/09/01 02:07:02;;;;;;;17.83;16.00;;;16.70;99.90;;;;;;5075494;28;20488;-64
2022/09/01 02:09:29;;;;;;;19.93;17.93;;;16.70;99.90;;;;;;5074595;28;20444;-64
2022/09/01 02:11:57;;;;;;;16.23;14.70;;;16.70;99.90;;;;;;5075324;28;20563;-65
2022/09/01 02:14:25;;;;;;;16.37;14.80;;;17.10;99.90;;;;;;5075086;28;20942;-64
2022/09/01 02:16:54;;;;;;;16.90;15.30;;;17.20;99.90;;;;;;5075316;28;20443;-65
2022/09/01 02:19:22;;;;;;;17.90;16.30;;;17.40;99.90;;;;;;5074878;28;20448;-64
2022/09/01 02:21:53;;;;;;;18.50;16.70;;;17.20;99.90;;;;;;5074768;28;20464;-64
2022/09/01 02:24:20;;;;;;;16.97;15.33;;;17.00;99.90;;;;;;5075260;28;20433;-64
2022/09/01 02:26:48;;;;;;;18.67;15.13;;;17.00;99.90;;;;;;5074934;28;20483;-65
2022/09/01 02:29:19;;;;;;;16.93;15.37;;;17.10;99.90;;;;;;5075042;28;20445;-65
2022/09/01 02:31:49;;;;;;;29.07;18.47;;;17.00;99.90;;;;;;5075046;28;20478;-66
2022/09/01 02:34:18;;;;;;;19.93;18.00;;;17.00;99.90;;;;;;5074760;28;20444;-65
2022/09/01 02:36:49;;;;;;;17.00;15.40;;;17.20;99.90;;;;;;5074824;28;20502;-65
2022/09/01 02:39:17;;;;;;;17.03;15.17;;;17.30;99.90;;;;;;5074596;28;20823;-64
2022/09/01 02:41:49;;;;;;;18.80;16.80;;;17.40;99.90;;;;;;5074811;28;20512;-64
2022/09/01 02:44:20;;;;;;;17.87;16.07;;;17.40;99.90;;;;;;5074687;28;20502;-66
2022/09/01 02:46:49;;;;;;;17.60;15.80;;;17.60;99.90;;;;;;5073962;28;20840;-66
2022/09/01 02:49:21;;;;;;;17.40;15.77;;;17.40;99.90;;;;;;5074528;28;20452;-65
2022/09/01 02:51:52;;;;;;;21.57;17.30;;;17.30;99.90;;;;;;5074688;28;20468;-65
2022/09/01 02:54:24;;;;;;;17.87;16.30;;;17.30;99.90;;;;;;5074528;28;20456;-65
2022/09/01 02:56:53;;;;;;;17.47;15.67;;;17.20;99.90;;;;;;5074433;28;20777;-65
2022/09/01 02:59:23;;;;;;;18.03;15.17;;;17.50;99.90;;;;;;5074392;28;20487;-65
2022/09/01 03:01:52;;;;;;;17.53;15.73;;;17.40;99.90;;;;;;5074083;28;20475;-65
2022/09/01 03:04:22;;;;;;;18.50;16.60;;;17.40;99.90;;;;;;5074230;28;20476;-65
2022/09/01 03:06:51;;;;;;;17.70;16.00;;;17.10;99.90;;;;;;5074190;28;20547;-65
2022/09/01 03:09:18;;;;;;;18.27;16.57;;;17.00;99.90;;;;;;5074015;28;20535;-66
2022/09/01 03:11:48;;;;;;;18.10;16.30;;;17.10;99.90;;;;;;5073736;28;20491;-65
2022/09/01 03:14:15;;;;;;;18.20;16.40;;;17.10;99.90;;;;;;5074088;28;20472;-65
2022/09/01 03:16:43;;;;;;;14.23;12.83;;;17.10;99.90;;;;;;5073944;28;20866;-65
2022/09/01 03:19:10;;;;;;;15.30;13.70;;;17.30;99.90;;;;;;5074173;28;20786;-65
2022/09/01 03:21:41;;;;;;;17.00;14.90;;;17.40;99.90;;;;;;5073876;28;20468;-65
2022/09/01 03:24:13;;;;;;;15.47;13.80;;;17.90;99.90;;;;;;5073639;28;20440;-65
2022/09/01 03:26:40;;;;;;;18.80;15.63;;;17.60;99.90;;;;;;5073950;28;20519;-65
2022/09/01 03:29:08;;;;;;;17.67;15.97;;;17.40;99.90;;;;;;5073541;28;20935;-65
2022/09/01 03:31:36;;;;;;;15.10;13.53;;;17.50;99.90;;;;;;5073546;28;20849;-66
2022/09/01 03:34:04;;;;;;;12.93;11.53;;;17.70;99.90;;;;;;5073561;28;20444;-65
2022/09/01 03:36:32;;;;;;;16.53;14.97;;;18.00;99.90;;;;;;5073343;28;20449;-65
2022/09/01 03:39:01;;;;;;;14.10;12.67;;;18.30;99.90;;;;;;5073355;28;20480;-65
2022/09/01 03:41:29;;;;;;;16.13;14.50;;;18.20;99.90;;;;;;5073624;28;20948;-65
2022/09/01 03:43:57;;;;;;;15.90;14.30;;;18.20;99.90;;;;;;5073523;28;20821;-66
2022/09/01 03:46:25;;;;;;;15.10;13.50;;;18.00;99.90;;;;;;5073367;28;20843;-66
2022/09/01 03:48:54;;;;;;;16.40;14.70;;;17.80;99.90;;;;;;5073129;28;20475;-65
2022/09/01 03:51:23;;;;;;;16.90;15.13;;;17.50;99.90;;;;;;5073633;28;20444;-65
2022/09/01 03:53:53;;;;;;;16.50;14.73;;;17.40;99.90;;;;;;5073283;28;20444;-65
2022/09/01 03:56:22;;;;;;;15.10;13.50;;;17.40;99.90;;;;;;5073124;28;20543;-65
2022/09/01 03:58:51;;;;;;;14.93;13.03;;;17.50;99.90;;;;;;5073357;28;20444;-65
2022/09/01 04:01:19;;;;;;;21.43;16.53;;;17.60;99.90;;;;;;5073397;28;20468;-67
2022/09/01 04:03:47;;;;;;;17.00;15.40;;;17.60;99.90;;;;;;5073076;28;20954;-66
2022/09/01 04:06:17;;;;;;;17.63;15.80;;;17.40;99.90;;;;;;5073511;28;20449;-66
2022/09/01 04:08:45;;;;;;;19.10;15.07;;;17.00;99.90;;;;;;5073673;28;20486;-65
2022/09/01 04:11:17;;;;;;;17.43;15.77;;;16.70;99.90;;;;;;5073054;28;20503;-65
2022/09/01 04:13:46;;;;;;;17.57;15.73;;;16.60;99.90;;;;;;5073068;28;20975;-65
2022/09/01 04:19:14;;;;;;;17.90;16.30;;;16.30;99.90;;;;;;5072858;28;20404;-65
2022/09/01 04:21:43;;;;;;;20.00;16.87;;;16.30;99.90;;;;;;5072996;28;20899;-65
2022/09/01 04:24:12;;;;;;;19.30;17.40;;;16.30;99.90;;;;;;5073157;28;20480;-66
2022/09/01 04:26:39;;;;;;;20.27;18.27;;;16.30;99.90;;;;;;5072870;28;20931;-66
2022/09/01 04:29:10;;;;;;;17.93;16.20;;;16.30;99.90;;;;;;5072930;28;21033;-66
2022/09/01 04:31:39;;;;;;;17.33;15.60;;;16.40;99.90;;;;;;5073662;28;20468;-65
2022/09/01 04:34:12;;;;;;;18.23;16.10;;;16.60;99.90;;;;;;5077155;28;20495;-65
2022/09/01 04:36:42;;;;;;;17.90;16.07;;;16.80;99.90;;;;;;5077155;28;20437;-65
2022/09/01 04:39:11;;;;;;;20.80;17.00;;;16.90;99.90;;;;;;5077207;28;20840;-65
2022/09/01 04:41:41;;;;;;;17.80;15.83;;;16.90;99.90;;;;;;5076951;28;20483;-65
2022/09/01 04:44:10;;;;;;;20.93;16.60;;;16.90;99.90;;;;;;5076932;28;20820;-66
2022/09/01 04:46:41;;;;;;;19.93;18.07;;;16.90;99.90;;;;;;5076343;28;20548;-65
2022/09/01 04:49:10;;;;;;;19.80;17.97;;;17.00;99.90;;;;;;5076662;28;20460;-65
2022/09/01 04:51:39;;;;;;;20.93;18.30;;;16.80;99.90;;;;;;5076598;28;20559;-65
2022/09/01 04:54:12;;;;;;;18.70;15.00;;;16.60;99.90;;;;;;5076448;28;20535;-66
2022/09/01 04:56:40;;;;;;;20.53;17.80;;;16.40;99.90;;;;;;5076896;28;20425;-66
2022/09/01 04:59:09;;;;;;;18.90;17.07;;;16.10;99.90;;;;;;5076550;28;20428;-66
2022/09/01 05:01:43;;;;;;;22.00;19.40;;;16.10;99.90;;;;;;5076318;28;20468;-66
2022/09/01 05:04:13;;;;;;;16.40;14.80;;;16.00;99.90;;;;;;5076217;28;20429;-65
2022/09/01 05:06:42;;;;;;;21.10;16.73;;;16.50;99.90;;;;;;5076290;28;20479;-66
2022/09/01 05:09:10;;;;;;;19.63;16.77;;;16.70;99.90;;;;;;5076029;28;20516;-66
2022/09/01 05:11:39;;;;;;;18.90;16.93;;;16.70;99.90;;;;;;5076112;28;20503;-65
2022/09/01 05:14:06;;;;;;;18.57;16.50;;;16.80;99.90;;;;;;5075919;28;20946;-66
2022/09/01 05:16:36;;;;;;;21.73;18.97;;;16.70;99.90;;;;;;5076087;28;20459;-66
2022/09/01 05:19:05;;;;;;;20.20;18.00;;;16.60;99.90;;;;;;5075860;28;20506;-65
2022/09/01 05:21:32;;;;;;;20.23;18.13;;;16.60;99.90;;;;;;5076164;28;20468;-66
2022/09/01 05:24:02;;;;;;;16.70;14.97;;;16.60;99.90;;;;;;5075899;28;20452;-65
2022/09/01 05:26:32;;;;;;;18.43;16.63;;;16.60;99.90;;;;;;5075975;28;20539;-66
2022/09/01 05:29:02;;;;;;;21.17;18.97;;;16.80;99.90;;;;;;5075679;28;21061;-65
2022/09/01 05:31:37;;;;;;;17.00;15.40;;;17.00;99.90;;;;;;5075747;28;20468;-67
2022/09/01 05:34:08;;;;;;;20.30;17.50;;;17.10;99.90;;;;;;5075712;28;20432;-66
2022/09/01 05:36:36;;;;;;;18.33;16.30;;;17.20;99.90;;;;;;5075873;28;20531;-65
2022/09/01 05:39:05;;;;;;;19.30;17.17;;;17.10;99.90;;;;;;5075493;28;20807;-66
2022/09/01 05:41:34;;;;;;;19.70;17.70;;;17.30;99.90;;;;;;5075769;28;20471;-65
2022/09/01 05:44:06;;;;;;;17.10;15.27;;;17.30;99.90;;;;;;5074393;28;20471;-65
2022/09/01 05:46:35;;;;;;;19.87;16.37;;;17.60;99.90;;;;;;5075412;28;20529;-65
2022/09/01 05:49:05;;;;;;;18.80;17.00;;;17.80;99.90;;;;;;5075217;28;20519;-65
2022/09/01 05:51:35;;;;;;;15.17;13.67;;;17.70;99.90;;;;;;5075630;28;20468;-66
2022/09/01 05:54:06;;;;;;;13.73;12.40;;;17.30;99.90;;;;;;5075547;28;20479;-66
2022/09/01 05:56:38;;;;;;;19.57;17.77;;;17.40;99.90;;;;;;5075654;28;20791;-66
2022/09/01 05:59:05;;;;;;;19.37;17.37;;;17.50;99.90;;;;;;5075165;28;20429;-67
2022/09/01 06:01:33;;;;;;;17.97;16.07;;;17.10;99.90;;;;;;5075171;28;20464;-66
2022/09/01 06:04:04;;;;;;;17.90;16.00;;;17.10;99.90;;;;;;5075035;28;20451;-67
2022/09/01 06:06:39;;;;;;;19.60;17.50;;;17.00;99.90;;;;;;5075185;28;20436;-66
2022/09/01 06:09:09;;;;;;;23.53;16.23;;;17.00;99.90;;;;;;5074780;28;20966;-66
2022/09/01 06:11:36;;;;;;;18.80;17.00;;;16.90;99.90;;;;;;5074965;28;20481;-66
2022/09/01 06:14:04;;;;;;;17.27;15.50;;;16.90;99.90;;;;;;5074733;28;20435;-67
2022/09/01 06:16:32;;;;;;;18.73;16.80;;;18.10;99.90;;;;;;5074794;28;20945;-66
2022/09/01 06:18:59;;;;;;;18.07;16.27;;;17.60;99.90;;;;;;5075135;28;20535;-67
2022/09/01 06:21:27;;;;;;;18.57;16.77;;;17.70;99.90;;;;;;5074858;28;20468;-66
2022/09/01 06:23:57;;;;;;;17.97;16.17;;;17.60;99.90;;;;;;5074903;28;20432;-66
2022/09/01 06:26:27;;;;;;;19.43;17.00;;;17.60;99.90;;;;;;5074838;28;21002;-66
2022/09/01 06:28:57;;;;;;;18.20;16.40;;;17.40;99.90;;;;;;5075023;28;20563;-67
2022/09/01 06:31:25;;;;;;;17.90;16.10;;;17.50;99.90;;;;;;5074494;28;21068;-67
2022/09/01 06:33:52;;;;;;;17.33;15.60;;;17.50;99.90;;;;;;5074151;28;20861;-67
2022/09/01 06:36:22;;;;;;;18.77;16.70;;;17.30;99.90;;;;;;5074817;28;20453;-67
2022/09/01 06:38:51;;;;;;;18.30;16.40;;;17.40;99.90;;;;;;5074753;28;20453;-67
2022/09/01 06:41:22;;;;;;;19.67;17.07;;;17.50;99.90;;;;;;5074129;28;20519;-67
2022/09/01 06:43:51;;;;;;;18.23;15.83;;;17.50;99.90;;;;;;5074241;28;20429;-66
2022/09/01 06:46:18;;;;;;;22.77;17.57;;;17.50;99.90;;;;;;5074036;28;20444;-66
2022/09/01 06:48:46;;;;;;;19.70;17.70;;;17.70;99.90;;;;;;5074345;28;20500;-67
2022/09/01 06:51:15;;;;;;;18.57;16.33;;;17.70;99.90;;;;;;5074046;28;20954;-67
2022/09/01 06:53:43;;;;;;;17.53;14.87;;;17.70;99.90;;;;;;5073965;28;20448;-66
2022/09/01 06:56:12;;;;;;;19.73;16.27;;;17.60;99.90;;;;;;5073898;28;20553;-66
2022/09/01 06:58:43;;;;;;;18.43;16.67;;;17.50;99.90;;;;;;5073840;28;20489;-67
2022/09/01 07:01:14;;;;;;;17.63;15.83;;;17.90;99.90;;;;;;5074318;28;20468;-67
2022/09/01 07:03:42;;;;;;;15.53;13.90;;;18.00;99.90;;;;;;5073745;28;20457;-67
2022/09/01 07:06:10;;;;;;;20.90;17.00;;;18.30;99.90;;;;;;5073711;28;20911;-66
2022/09/01 07:08:40;;;;;;;16.83;15.30;;;18.70;99.90;;;;;;5074240;28;20480;-66
2022/09/01 07:11:16;;;;;;;17.97;14.30;;;18.60;99.90;;;;;;5073560;28;20982;-67
2022/09/01 07:13:45;;;;;;;17.87;15.70;;;18.80;99.90;;;;;;5073839;28;20428;-66
2022/09/01 07:16:21;;;;;;;15.60;14.10;;;18.80;99.90;;;;;;5073918;28;20451;-67
2022/09/01 07:18:48;;;;;;;17.50;15.20;;;18.60;99.90;;;;;;5073326;28;20794;-66
2022/09/01 07:21:16;;;;;;;14.40;13.00;;;18.80;99.90;;;;;;5073494;28;20547;-67
2022/09/01 07:23:43;;;;;;;13.53;12.13;;;19.40;99.90;;;;;;5073359;28;20499;-68
2022/09/01 07:26:16;;;;;;;13.63;12.27;;;19.70;99.90;;;;;;5073373;28;20488;-67
2022/09/01 07:28:46;;;;;;;13.40;12.13;;;19.70;99.90;;;;;;5073482;28;20468;-68
2022/09/01 07:31:20;;;;;;;12.80;11.43;;;19.60;99.90;;;;;;5073217;28;20525;-67
2022/09/01 07:33:50;;;;;;;12.13;10.97;;;19.50;99.90;;;;;;5073195;28;20960;-68
2022/09/01 07:36:17;;;;;;;12.17;11.07;;;19.80;99.90;;;;;;5073635;28;20451;-67
2022/09/01 07:38:52;;;;;;;9.07;8.27;;;19.70;99.90;;;;;;5073591;28;20535;-68
2022/09/01 07:41:20;;;;;;;14.13;12.73;;;19.80;99.90;;;;;;5072925;28;20940;-67
2022/09/01 07:43:52;;;;;;;10.10;9.10;;;20.00;99.90;;;;;;5073372;28;20805;-68
2022/09/01 07:46:21;;;;;;;13.27;11.90;;;20.10;99.90;;;;;;5073255;28;20447;-66
2022/09/01 07:48:49;;;;;;;20.73;13.60;;;20.20;99.90;;;;;;5073500;28;20464;-67
2022/09/01 07:51:19;;;;;;;16.03;12.20;;;19.70;99.90;;;;;;5072904;28;20969;-67
2022/09/01 07:53:48;;;;;;;9.43;8.50;;;19.80;99.90;;;;;;5073280;28;20444;-66
2022/09/01 07:56:17;;;;;;;12.97;11.67;;;19.90;99.90;;;;;;5073244;28;20456;-67
2022/09/01 07:58:45;;;;;;;13.30;12.00;;;20.20;99.90;;;;;;5073022;28;20779;-67
2022/09/01 08:01:17;;;;;;;10.43;9.43;;;20.20;99.90;;;;;;5073183;28;20548;-66
2022/09/01 08:03:45;;;;;;;12.53;11.23;;;20.60;99.90;;;;;;5072723;28;20899;-66
2022/09/01 08:06:18;;;;;;;10.33;9.43;;;20.60;99.90;;;;;;5072314;28;20923;-66
2022/09/01 08:08:45;;;;;;;12.03;10.83;;;20.80;99.90;;;;;;5072755;28;20532;-66
2022/09/01 08:11:17;;;;;;;14.20;11.00;;;20.90;99.90;;;;;;5072561;28;20567;-66
2022/09/01 08:13:46;;;;;;;13.73;10.93;;;20.60;99.90;;;;;;5073091;28;20429;-66
2022/09/01 08:16:15;;;;;;;10.20;9.20;;;20.30;99.90;;;;;;5073007;28;20496;-67
2022/09/01 08:18:42;;;;;;;12.37;10.20;;;20.20;99.90;;;;;;5072817;28;20444;-66
2022/09/01 08:21:10;;;;;;;13.23;11.83;;;20.20;99.90;;;;;;5072556;28;20465;-66
2022/09/01 08:23:38;;;;;;;12.13;10.80;;;20.20;99.90;;;;;;5073178;28;20807;-66
2022/09/01 08:26:06;;;;;;;11.60;10.50;;;20.50;99.90;;;;;;5072745;28;20962;-66
2022/09/01 08:28:34;;;;;;;11.57;10.47;;;20.60;99.90;;;;;;5072613;28;20476;-67
2022/09/01 08:31:05;;;;;;;9.50;8.70;;;20.10;99.90;;;;;;5072785;28;21001;-67
2022/09/01 08:33:34;;;;;;;10.40;9.40;;;19.90;99.90;;;;;;5072719;28;20519;-67
2022/09/01 08:36:02;;;;;;;11.47;10.27;;;19.90;99.90;;;;;;5072611;28;20447;-66
2022/09/01 08:38:29;;;;;;;10.80;9.70;;;19.80;99.90;;;;;;5072969;28;20448;-67
2022/09/01 08:40:58;;;;;;;12.30;11.13;;;19.90;99.90;;;;;;5072484;28;20566;-66
2022/09/01 08:43:38;;;;;;;12.40;10.73;;;19.80;99.90;;;;;;5072431;28;20439;-66
2022/09/01 08:46:11;;;;;;;10.20;9.20;;;20.00;99.90;;;;;;5072639;28;20508;-66
2022/09/01 08:48:42;;;;;;;11.23;10.17;;;20.00;99.90;;;;;;5072323;28;20480;-67
2022/09/01 08:51:18;;;;;;;10.63;9.70;;;20.10;99.90;;;;;;5072764;28;20473;-66
2022/09/01 08:53:50;;;;;;;9.93;9.03;;;20.60;99.90;;;;;;5072438;28;20974;-66
2022/09/01 08:56:19;;;;;;;10.67;9.73;;;20.60;99.90;;;;;;5072748;28;20432;-66
2022/09/01 08:58:47;;;;;;;10.13;9.13;;;20.60;99.90;;;;;;5072276;28;20883;-67
2022/09/01 09:01:26;;;;;;;14.17;10.10;;;20.30;99.90;;;;;;5072677;28;20468;-66
2022/09/01 09:04:13;;;;;;;9.70;8.80;;;19.90;99.90;;;;;;5072356;28;20432;-67
2022/09/01 09:06:52;;;;;;;9.73;8.83;;;20.00;99.90;;;;;;5072845;28;20511;-67
2022/09/01 09:09:19;;;;;;;9.07;8.27;;;20.10;99.90;;;;;;5072020;28;21002;-66
2022/09/01 09:12:08;;;;;;;9.40;8.47;;;20.10;99.90;;;;;;5072397;28;20555;-66
2022/09/01 09:14:56;;;;;;;10.87;9.83;;;20.00;99.90;;;;;;5072170;28;20432;-66
2022/09/01 09:17:29;;;;;;;10.47;9.43;;;20.00;99.90;;;;;;5072150;28;20425;-66
2022/09/01 09:19:57;;;;;;;10.00;9.00;;;20.20;99.90;;;;;;5076277;28;20854;-66
2022/09/01 09:22:24;;;;;;;12.20;9.67;;;20.30;99.90;;;;;;5075730;28;21026;-66
2022/09/01 09:24:56;;;;;;;9.90;9.00;;;20.40;99.90;;;;;;5075973;28;20459;-66
2022/09/01 09:27:26;;;;;;;8.80;8.10;;;20.50;99.90;;;;;;5075808;28;20428;-66
2022/09/01 09:29:56;;;;;;;9.70;8.70;;;20.40;99.90;;;;;;5075907;28;20490;-66
2022/09/01 09:32:25;;;;;;;10.70;9.67;;;20.30;99.90;;;;;;5075883;28;20460;-66
2022/09/01 09:34:52;;;;;;;7.87;7.17;;;20.50;99.90;;;;;;5075555;28;20531;-66
2022/09/01 09:37:27;;;;;;;9.00;8.20;;;20.60;99.90;;;;;;5075547;28;20785;-66
2022/09/01 09:40:16;;;;;;;8.63;7.93;;;20.50;99.90;;;;;;5075624;28;20432;-66
2022/09/01 09:43:03;;;;;;;8.83;8.03;;;20.50;99.90;;;;;;5071331;28;20468;-66
2022/09/01 09:45:33;;;;;;;9.57;8.60;;;20.40;99.90;;;;;;5075583;28;20420;-66
2022/09/01 09:48:04;;;;;;;9.33;8.50;;;20.60;99.90;;;;;;5075202;28;20520;-66
2022/09/01 09:50:34;;;;;;;12.77;8.80;;;20.70;99.90;;;;;;5075344;28;20555;-66
2022/09/01 09:53:15;;;;;;;10.17;9.17;;;20.80;99.90;;;;;;5075129;28;20445;-65
2022/09/01 09:55:55;;;;;;;9.30;8.30;;;20.70;99.90;;;;;;5075410;28;20444;-65
2022/09/01 09:58:25;;;;;;;8.30;7.60;;;20.70;99.90;;;;;;5075075;28;20857;-65
2022/09/01 10:01:09;;;;;;;8.30;7.60;;;20.80;99.90;;;;;;5075323;28;20460;-66
2022/09/01 10:03:49;;;;;;;8.57;7.47;;;21.80;99.90;;;;;;5075425;28;20425;-66
2022/09/01 10:06:30;;;;;;;7.70;6.20;;;;;;;;;;5075042;28;20531;-66
2022/09/01 10:09:00;;;;;;;6.77;6.20;;;24.30;99.90;;;;;;5074950;28;20468;-66
2022/09/01 10:11:30;;;;;;;7.23;6.60;;;24.40;99.90;;;;;;5075069;28;20529;-66
2022/09/01 10:13:57;;;;;;;6.83;6.30;;;24.40;99.90;;;;;;5075629;28;20417;-66
2022/09/01 10:16:30;;;;;;;7.90;7.10;;;23.80;99.90;;;;;;5075210;28;20806;-66
2022/09/01 10:19:01;;;;;;;8.43;7.33;;;23.30;99.90;;;;;;5074670;28;20432;-66
2022/09/01 10:21:34;;;;;;;7.37;6.80;;;22.70;99.90;;;;;;5074688;28;20472;-66
2022/09/01 10:24:09;;;;;;;9.10;7.67;;;22.30;99.90;;;;;;5074776;28;20862;-66
2022/09/01 10:26:39;;;;;;;6.77;6.27;;;21.90;99.90;;;;;;5075052;28;20531;-66
2022/09/01 10:29:13;;;;;;;6.90;6.20;;;22.90;99.90;;;;;;5074782;28;20516;-65
2022/09/01 10:31:41;;;;;;;6.90;6.30;;;23.20;99.90;;;;;;5074306;28;20477;-66
2022/09/01 10:34:15;;;;;;;8.70;6.73;;;22.90;99.90;;;;;;5074545;28;20448;-66
2022/09/01 10:36:43;;;;;;;7.70;7.00;;;23.00;99.90;;;;;;5074965;28;20465;-66
2022/09/01 10:39:14;;;;;;;7.13;6.53;;;23.00;99.90;;;;;;5074319;28;20535;-66
2022/09/01 10:41:52;;;;;;;7.03;5.60;;;23.80;99.90;;;;;;5074618;28;20480;-65
2022/09/01 10:44:29;;;;;;;6.70;5.63;;;23.60;99.90;;;;;;5074175;28;20436;-66
2022/09/01 10:46:57;;;;;;;6.00;5.40;;;24.10;99.90;;;;;;5073932;28;20511;-66
2022/09/01 10:50:00;;;;;;;6.20;5.70;;;24.40;99.90;;;;;;5074446;28;20484;-66
2022/09/01 10:52:54;;;;;;;5.17;4.57;;;24.50;99.90;;;;;;5074066;28;20967;-64
2022/09/01 10:55:26;;;;;;;5.40;5.00;;;25.30;99.90;;;;;;5074073;28;20421;-65
2022/09/01 10:58:24;;;;;;;5.10;4.70;;;25.60;99.90;;;;;;5073833;28;20475;-65
2022/09/01 11:00:53;;;;;;;5.80;5.30;;;25.90;99.90;;;;;;5073754;28;20460;-65
2022/09/01 11:03:37;;;;;;;4.97;4.57;;;26.30;99.90;;;;;;5074173;28;20531;-67
2022/09/01 11:06:07;;;;;;;5.03;4.63;;;25.90;99.90;;;;;;5074113;28;20456;-64
2022/09/01 11:08:47;;;;;;;5.10;4.60;;;25.50;99.90;;;;;;5074267;28;20935;-63
2022/09/01 11:11:28;;;;;;;4.83;4.53;;;25.00;99.90;;;;;;5073784;28;20494;-63
2022/09/01 11:13:58;;;;;;;5.17;4.77;;;24.70;99.90;;;;;;5073519;28;20523;-63
2022/09/01 11:16:30;;;;;;;5.23;4.83;;;;;;;;;;5073863;28;20445;-63
2022/09/01 11:19:24;;;;;;;5.77;5.20;;;23.50;99.90;;;;;;5073395;28;20425;-63
2022/09/01 11:22:14;;;;;;;4.30;4.00;;;22.90;99.90;;;;;;5073786;28;20890;-64
2022/09/01 11:25:04;;;;;;;5.80;5.27;;;22.80;99.90;;;;;;5073690;28;20456;-64
2022/09/01 11:27:58;;;;;;;5.33;4.87;;;22.60;99.90;;;;;;5073651;28;20432;-63
2022/09/01 11:30:49;;;;;;;7.60;5.23;;;22.60;99.90;;;;;;5066513;28;20567;-65
2022/09/01 11:33:29;;;;;;;6.00;5.43;;;22.70;99.90;;;;;;5073535;28;20429;-65
2022/09/01 11:36:01;;;;;;;5.77;5.17;;;22.60;99.90;;;;;;5073460;28;20490;-65
2022/09/01 11:38:38;;;;;;;5.30;4.80;;;23.00;99.90;;;;;;5073392;28;20487;-64
2022/09/01 11:41:05;;;;;;;6.13;4.93;;;24.30;99.90;;;;;;5072498;28;20479;-64
2022/09/01 11:43:33;;;;;;;5.17;4.77;;;25.50;99.90;;;;;;5073379;28;20528;-64
2022/09/01 11:46:16;;;;;;;4.57;4.17;;;25.50;99.90;;;;;;5073451;28;20448;-64
2022/09/01 11:48:46;;;;;;;7.20;4.70;;;26.00;99.90;;;;;;5073313;28;20424;-63
2022/09/01 11:51:15;;;;;;;4.50;4.20;;;26.80;99.90;;;;;;5072815;28;20873;-65
2022/09/01 11:53:43;;;;;;;4.20;3.90;;;26.70;99.90;;;;;;5072834;28;20606;-64
2022/09/01 11:56:17;;;;;;;6.00;4.57;;;27.00;98.40;;;;;;5073502;28;20451;-63
2022/09/01 11:58:46;;;;;;;5.00;4.50;;;27.20;99.60;;;;;;5073001;28;20765;-64
2022/09/01 12:01:16;;;;;;;4.87;4.17;;;26.70;99.30;;;;;;5072800;28;21002;-65
2022/09/01 12:03:45;;;;;;;4.67;4.30;;;26.10;99.90;;;;;;5073342;28;20433;-65
2022/09/01 12:06:21;;;;;;;4.30;3.90;;;25.70;99.90;;;;;;5073088;28;20459;-63
2022/09/01 12:08:54;;;;;;;9.23;4.53;;;25.10;99.90;;;;;;5072992;28;20527;-64
2022/09/01 12:11:26;;;;;;;5.23;4.73;;;25.10;99.90;;;;;;5073022;28;20574;-63
2022/09/01 12:14:02;;;;;;;4.83;4.43;;;25.50;99.90;;;;;;5072934;28;20443;-63
2022/09/01 12:16:31;;;;;;;4.70;4.30;;;25.50;99.90;;;;;;5072993;28;20507;-63
2022/09/01 12:18:59;;;;;;;4.93;4.60;;;25.30;99.90;;;;;;5072830;28;20448;-64
2022/09/01 12:21:28;;;;;;;5.80;5.40;;;24.50;99.90;;;;;;5072101;28;20873;-65
2022/09/01 12:24:10;;;;;;;5.70;5.20;;;;;;;;;;5072430;28;20455;-65
2022/09/01 12:26:38;;;;;;;5.20;4.70;;;23.60;99.90;;;;;;5073194;28;20518;-63
2022/09/01 12:29:08;;;;;;;6.33;5.83;;;23.50;99.90;;;;;;5072709;28;20788;-63
2022/09/01 12:31:36;;;;;;;5.43;4.93;;;23.50;99.90;;;;;;5072852;28;20514;-63
2022/09/01 12:34:03;;;;;;;4.87;4.20;;;23.40;99.90;;;;;;5072418;28;20450;-64
2022/09/01 12:36:33;;;;;;;4.50;4.20;;;24.00;99.90;;;;;;5072575;28;20491;-65
2022/09/01 12:39:22;;;;;;;5.70;5.20;;;24.10;99.90;;;;;;5072884;28;20444;-63
2022/09/01 12:42:03;;;;;;;5.23;4.73;;;24.00;99.90;;;;;;5072861;28;20460;-64
2022/09/01 12:44:34;;;;;;;5.27;4.93;;;23.80;99.90;;;;;;5072697;28;20509;-63
2022/09/01 12:47:03;;;;;;;5.40;5.00;;;23.40;99.90;;;;;;5071181;28;20521;-63
2022/09/01 12:49:39;;;;;;;5.00;4.60;;;23.20;99.90;;;;;;5072700;28;20451;-64
2022/09/01 12:52:13;;;;;;;5.20;4.70;;;23.00;99.90;;;;;;5072937;28;20471;-63
2022/09/01 12:54:41;;;;;;;4.43;4.03;;;23.80;99.90;;;;;;5076074;28;20832;-65
2022/09/01 12:57:09;;;;;;;4.60;4.20;;;24.10;99.90;;;;;;5076271;28;20869;-64
2022/09/01 12:59:38;;;;;;;4.27;3.87;;;24.50;99.90;;;;;;5076375;28;20943;-64
2022/09/01 13:02:27;;;;;;;4.30;4.00;;;25.10;99.90;;;;;;5076168;28;20444;-65